createdAt,value
2023-02-26T00:00:59.089Z,22.40
2023-02-26T00:03:31.017Z,21.45
2023-02-26T00:06:03.023Z,22.70
2023-02-26T00:08:36.061Z,21.85
2023-02-26T00:11:09.657Z,22.00
2023-02-26T00:13:43.440Z,23.17
2023-02-26T00:16:31.590Z,23.13
2023-02-26T00:19:06.294Z,22.83
2023-02-26T00:21:39.899Z,23.90
2023-02-26T00:24:11.858Z,23.17
2023-02-26T00:26:43.745Z,21.65
2023-02-26T00:29:15.963Z,22.13
2023-02-26T00:31:48.235Z,23.52
2023-02-26T00:34:20.717Z,23.50
2023-02-26T00:37:00.675Z,23.23
2023-02-26T00:39:47.628Z,23.00
2023-02-26T00:42:20.029Z,24.13
2023-02-26T00:44:52.403Z,24.23
2023-02-26T00:47:56.427Z,24.38
2023-02-26T00:50:28.657Z,23.20
2023-02-26T00:53:25.172Z,24.43
2023-02-26T00:55:57.030Z,23.35
2023-02-26T00:58:29.296Z,24.55
2023-02-26T01:01:01.262Z,24.20
2023-02-26T01:03:33.938Z,24.15
2023-02-26T01:06:11.681Z,24.08
2023-02-26T01:09:10.870Z,22.20
2023-02-26T01:11:43.016Z,23.15
2023-02-26T01:14:15.113Z,23.67
2023-02-26T01:17:11.573Z,23.10
2023-02-26T01:19:49.565Z,22.75
2023-02-26T01:22:36.033Z,22.98
2023-02-26T01:25:26.666Z,21.92
2023-02-26T01:27:59.059Z,23.20
2023-02-26T01:30:31.639Z,23.27
2023-02-26T01:33:13.116Z,22.05
2023-02-26T01:38:50.239Z,23.80
2023-02-26T01:41:25.457Z,24.67
2023-02-26T01:44:26.427Z,24.48
2023-02-26T01:47:06.424Z,24.27
2023-02-26T01:49:39.232Z,23.63
2023-02-26T01:52:48.377Z,22.02
2023-02-26T01:55:23.641Z,24.50
2023-02-26T01:58:00.022Z,23.65
2023-02-26T02:00:32.168Z,24.25
2023-02-26T02:03:05.240Z,24.00
2023-02-26T02:05:52.004Z,23.73
2023-02-26T02:08:24.457Z,24.83
2023-02-26T02:10:56.387Z,25.88
2023-02-26T02:14:01.853Z,29.67
2023-02-26T02:16:47.195Z,31.20
2023-02-26T02:19:45.722Z,31.85
2023-02-26T02:22:35.326Z,32.20
2023-02-26T02:25:25.768Z,31.15
2023-02-26T02:28:15.651Z,32.08
2023-02-26T02:31:01.206Z,29.00
2023-02-26T02:34:02.296Z,18.95
2023-02-26T02:36:46.953Z,20.70
2023-02-26T02:39:37.300Z,14.15
2023-02-26T02:42:14.730Z,6.40
2023-02-26T02:44:57.012Z,5.00
2023-02-26T02:47:32.182Z,4.07
2023-02-26T02:50:06.935Z,3.40
2023-02-26T02:52:52.095Z,2.50
2023-02-26T02:55:34.467Z,2.30
2023-02-26T02:58:17.234Z,1.90
2023-02-26T03:00:53.482Z,1.90
2023-02-26T03:03:43.899Z,1.75
2023-02-26T03:06:17.819Z,1.33
2023-02-26T03:08:51.275Z,1.75
2023-02-26T03:11:23.568Z,1.23
2023-02-26T03:13:55.818Z,1.25
2023-02-26T03:16:53.985Z,1.42
2023-02-26T03:19:56.729Z,0.77
2023-02-26T03:22:54.909Z,0.93
2023-02-26T03:25:39.005Z,0.80
2023-02-26T03:28:27.741Z,1.20
2023-02-26T03:31:48.450Z,0.98
2023-02-26T03:34:25.275Z,0.80
2023-02-26T03:37:06.703Z,0.50
2023-02-26T03:39:43.324Z,0.70
2023-02-26T03:42:27.453Z,0.50
2023-02-26T03:45:11.028Z,0.60
2023-02-26T03:47:46.268Z,0.50
2023-02-26T03:50:33.386Z,0.40
2023-02-26T03:53:30.325Z,0.40
2023-02-26T03:56:31.139Z,0.60
2023-02-26T03:59:21.807Z,0.40
2023-02-26T04:02:17.394Z,0.30
2023-02-26T04:05:10.499Z,0.50
2023-02-26T04:07:42.709Z,0.28
2023-02-26T04:10:18.203Z,0.30
2023-02-26T04:12:50.573Z,0.25
2023-02-26T04:15:22.501Z,0.22
2023-02-26T04:17:54.432Z,0.30
2023-02-26T04:20:26.344Z,0.30
2023-02-26T04:22:59.488Z,0.38
2023-02-26T04:25:31.447Z,0.25
2023-02-26T04:28:23.927Z,0.40
2023-02-26T04:30:56.307Z,0.40
2023-02-26T04:33:28.348Z,0.30
2023-02-26T04:36:01.034Z,0.40
2023-02-26T04:38:33.544Z,0.35
2023-02-26T04:41:06.243Z,0.35
2023-02-26T04:43:38.265Z,0.30
2023-02-26T04:46:24.412Z,0.80
2023-02-26T04:48:57.912Z,0.30
2023-02-26T04:51:30.224Z,0.50
2023-02-26T04:54:02.165Z,0.30
2023-02-26T04:56:34.113Z,0.40
2023-02-26T04:59:07.234Z,0.30
2023-02-26T05:01:40.127Z,0.50
2023-02-26T05:04:13.498Z,0.35
2023-02-26T05:06:47.685Z,0.40
2023-02-26T05:09:19.613Z,0.40
2023-02-26T05:11:52.006Z,0.43
2023-02-26T05:14:23.934Z,0.40
2023-02-26T05:16:55.912Z,0.60
2023-02-26T05:19:28.648Z,0.50
2023-02-26T05:22:00.619Z,0.30
2023-02-26T05:24:33.041Z,0.60
2023-02-26T05:27:05.541Z,0.40
2023-02-26T05:29:42.169Z,0.40
2023-02-26T05:32:17.244Z,0.43
2023-02-26T05:34:49.375Z,0.45
2023-02-26T05:37:21.294Z,0.35
2023-02-26T05:39:53.285Z,0.40
2023-02-26T05:42:25.323Z,0.50
2023-02-26T05:44:57.832Z,0.60
2023-02-26T05:47:29.779Z,0.47
2023-02-26T05:50:01.841Z,0.40
2023-02-26T05:52:33.903Z,0.40
2023-02-26T05:55:06.453Z,0.50
2023-02-26T05:57:38.355Z,1.08
2023-02-26T06:00:11.189Z,0.50
2023-02-26T06:02:45.706Z,0.40
2023-02-26T06:05:17.868Z,0.40
2023-02-26T06:07:49.745Z,0.40
2023-02-26T06:10:21.680Z,0.43
2023-02-26T06:12:53.614Z,0.55
2023-02-26T06:15:25.841Z,0.40
2023-02-26T06:17:57.704Z,0.40
2023-02-26T06:20:29.780Z,0.40
2023-02-26T06:23:01.777Z,0.40
2023-02-26T06:25:33.705Z,0.50
2023-02-26T06:28:05.835Z,0.55
2023-02-26T06:30:37.857Z,1.90
2023-02-26T06:33:09.784Z,0.60
2023-02-26T06:35:42.768Z,0.40
2023-02-26T06:38:15.237Z,0.50
2023-02-26T06:40:47.911Z,0.43
2023-02-26T06:43:19.886Z,0.50
2023-02-26T06:45:51.784Z,0.50
2023-02-26T06:48:23.653Z,0.40
2023-02-26T06:50:55.720Z,0.50
2023-02-26T06:53:29.283Z,0.40
2023-02-26T06:56:01.340Z,0.40
2023-02-26T06:58:33.339Z,0.30
2023-02-26T07:01:05.687Z,0.50
2023-02-26T07:03:37.586Z,0.45
2023-02-26T07:06:26.383Z,0.47
2023-02-26T07:09:03.099Z,0.60
2023-02-26T07:11:35.138Z,0.70
2023-02-26T07:14:07.073Z,0.47
2023-02-26T07:16:39.018Z,0.60
2023-02-26T07:19:10.893Z,0.55
2023-02-26T07:21:42.854Z,0.55
2023-02-26T07:24:14.969Z,0.40
2023-02-26T07:26:46.929Z,0.80
2023-02-26T07:29:19.028Z,0.88
2023-02-26T07:31:51.102Z,0.65
2023-02-26T07:34:23.180Z,0.70
2023-02-26T07:36:55.152Z,0.52
2023-02-26T07:39:27.405Z,0.47
2023-02-26T07:41:59.355Z,0.60
2023-02-26T07:44:33.782Z,0.45
2023-02-26T07:47:06.146Z,0.40
2023-02-26T07:49:38.180Z,0.50
2023-02-26T07:52:10.003Z,0.30
2023-02-26T07:54:43.181Z,0.45
2023-02-26T07:57:14.993Z,0.40
2023-02-26T07:59:46.971Z,0.40
2023-02-26T08:02:18.907Z,0.30
2023-02-26T08:04:50.781Z,0.70
2023-02-26T08:07:23.054Z,0.35
2023-02-26T08:09:54.969Z,0.38
2023-02-26T08:12:28.563Z,0.40
2023-02-26T08:15:00.371Z,0.40
2023-02-26T08:17:32.401Z,0.40
2023-02-26T08:20:05.154Z,0.40
2023-02-26T08:22:37.082Z,0.30
2023-02-26T08:25:09.312Z,0.35
2023-02-26T08:27:41.760Z,0.30
2023-02-26T08:30:14.136Z,0.38
2023-02-26T08:32:46.225Z,0.40
2023-02-26T08:35:18.431Z,0.50
2023-02-26T08:37:50.253Z,0.30
2023-02-26T08:40:22.294Z,0.43
2023-02-26T08:42:54.289Z,0.43
2023-02-26T08:45:26.146Z,0.40
2023-02-26T08:47:58.097Z,0.50
2023-02-26T08:50:30.019Z,0.43
2023-02-26T08:53:01.860Z,0.40
2023-02-26T08:55:33.754Z,0.30
2023-02-26T08:58:06.119Z,0.30
2023-02-26T09:00:38.034Z,0.50
2023-02-26T09:03:10.048Z,0.73
2023-02-26T09:05:42.914Z,0.40
2023-02-26T09:08:16.131Z,0.50
2023-02-26T09:10:48.130Z,0.60
2023-02-26T09:13:20.067Z,0.40
2023-02-26T09:15:52.039Z,0.60
2023-02-26T09:18:24.405Z,0.60
2023-02-26T09:20:56.268Z,0.47
2023-02-26T09:23:28.176Z,0.50
2023-02-26T09:26:00.351Z,0.50
2023-02-26T09:28:32.291Z,0.60
2023-02-26T09:31:04.429Z,0.40
2023-02-26T09:33:36.647Z,0.50
2023-02-26T09:36:09.046Z,1.35
2023-02-26T09:38:41.348Z,1.52
2023-02-26T09:41:19.694Z,0.80
2023-02-26T09:44:16.049Z,0.60
2023-02-26T09:46:53.793Z,0.70
2023-02-26T09:49:48.825Z,0.60
2023-02-26T09:52:41.753Z,0.63
2023-02-26T09:55:30.070Z,0.75
2023-02-26T09:58:14.791Z,0.65
2023-02-26T10:01:05.227Z,1.00
2023-02-26T10:03:46.295Z,1.00
2023-02-26T10:06:24.461Z,0.50
2023-02-26T10:09:13.169Z,0.80
2023-02-26T10:12:11.076Z,0.93
2023-02-26T10:14:51.202Z,1.00
2023-02-26T10:17:40.933Z,0.70
2023-02-26T10:20:23.072Z,0.90
2023-02-26T10:23:01.552Z,0.90
2023-02-26T10:25:47.481Z,1.40
2023-02-26T10:28:37.906Z,1.50
2023-02-26T10:31:14.498Z,0.90
2023-02-26T10:34:34.268Z,0.80
2023-02-26T10:37:47.347Z,0.63
2023-02-26T10:40:34.436Z,0.80
2023-02-26T10:43:35.415Z,0.60
2023-02-26T10:46:33.662Z,0.60
2023-02-26T10:49:36.755Z,0.63
2023-02-26T10:52:17.178Z,0.60
2023-02-26T10:55:25.810Z,0.63
2023-02-26T10:58:14.781Z,0.60
2023-02-26T11:00:50.243Z,0.70
2023-02-26T11:03:32.684Z,0.70
2023-02-26T11:06:06.532Z,0.60
2023-02-26T11:08:47.889Z,0.77
2023-02-26T11:11:41.353Z,0.70
2023-02-26T11:14:15.175Z,0.80
2023-02-26T11:16:51.152Z,0.60
2023-02-26T11:19:31.042Z,0.60
2023-02-26T11:22:05.116Z,0.70
2023-02-26T11:24:46.449Z,0.55
2023-02-26T11:27:34.958Z,0.70
2023-02-26T11:30:21.400Z,0.60
2023-02-26T11:32:57.759Z,0.63
2023-02-26T11:35:30.102Z,1.08
2023-02-26T11:38:03.218Z,0.82
2023-02-26T11:40:39.050Z,0.80
2023-02-26T11:43:20.468Z,0.90
2023-02-26T11:45:58.870Z,0.80
2023-02-26T11:48:49.605Z,0.90
2023-02-26T11:51:25.949Z,0.73
2023-02-26T11:54:01.523Z,0.70
2023-02-26T11:56:40.383Z,0.70
2023-02-26T11:59:21.576Z,0.77
2023-02-26T12:01:54.247Z,0.70
2023-02-26T12:04:27.776Z,0.70
2023-02-26T12:06:59.888Z,0.80
2023-02-26T12:09:31.876Z,0.60
2023-02-26T12:12:27.398Z,0.73
2023-02-26T12:15:01.320Z,0.75
2023-02-26T12:18:15.882Z,0.70
2023-02-26T12:21:09.936Z,0.85
2023-02-26T12:24:02.055Z,0.88
2023-02-26T12:26:40.985Z,0.90
2023-02-26T12:29:41.015Z,0.73
2023-02-26T12:32:13.023Z,0.85
2023-02-26T12:35:28.328Z,0.70
2023-02-26T12:38:40.639Z,0.80
2023-02-26T12:42:05.986Z,0.80
2023-02-26T12:45:11.830Z,0.70
2023-02-26T12:47:50.992Z,1.00
2023-02-26T12:50:41.156Z,0.80
2023-02-26T12:53:46.080Z,0.80
2023-02-26T12:56:23.869Z,0.80
2023-02-26T12:59:37.963Z,0.70
2023-02-26T13:02:29.306Z,0.95
2023-02-26T13:05:32.102Z,0.88
2023-02-26T13:08:21.078Z,0.80
2023-02-26T13:10:58.781Z,0.88
2023-02-26T13:13:35.963Z,0.82
2023-02-26T13:16:29.357Z,0.98
2023-02-26T13:19:20.595Z,0.70
2023-02-26T13:22:12.050Z,0.77
2023-02-26T13:24:50.773Z,0.80
2023-02-26T13:27:28.944Z,0.80
2023-02-26T13:30:12.714Z,1.27
2023-02-26T13:32:46.576Z,0.70
2023-02-26T13:35:27.808Z,0.77
2023-02-26T13:38:03.206Z,0.70
2023-02-26T13:40:46.053Z,0.80
2023-02-26T13:43:48.808Z,0.63
2023-02-26T13:46:26.331Z,0.80
2023-02-26T13:49:21.652Z,1.00
2023-02-26T13:51:55.314Z,0.95
2023-02-26T13:54:35.226Z,0.77
2023-02-26T13:57:33.041Z,0.70
2023-02-26T14:00:24.870Z,0.50
2023-02-26T14:03:10.281Z,0.82
2023-02-26T14:05:46.377Z,1.05
2023-02-26T14:08:39.264Z,1.10
2023-02-26T14:11:32.707Z,0.80
2023-02-26T14:14:12.202Z,0.85
2023-02-26T14:17:07.225Z,1.23
2023-02-26T14:41:40.494Z,0.60
2023-02-26T14:44:21.651Z,0.80
2023-02-26T14:46:54.101Z,1.40
2023-02-26T14:49:29.062Z,0.80
2023-02-26T14:52:28.521Z,0.82
2023-02-26T14:55:09.470Z,1.88
2023-02-26T14:58:01.392Z,0.52
2023-02-26T15:00:39.286Z,0.80
2023-02-26T15:03:39.072Z,0.70
2023-02-26T15:06:49.966Z,0.82
2023-02-26T15:09:49.322Z,0.63
2023-02-26T15:12:34.488Z,0.70
2023-02-26T15:15:15.333Z,0.50
2023-02-26T15:18:14.389Z,0.40
2023-02-26T15:21:06.503Z,0.60
2023-02-26T15:23:40.418Z,0.60
2023-02-26T15:26:29.399Z,1.05
2023-02-26T15:29:31.419Z,0.60
2023-02-26T15:35:52.211Z,2.15
2023-02-26T15:38:24.548Z,1.05
2023-02-26T15:41:02.558Z,2.60
2023-02-26T15:43:34.495Z,0.73
2023-02-26T15:46:07.227Z,1.08
2023-02-26T15:48:42.277Z,2.08
2023-02-26T15:51:19.044Z,0.80
2023-02-26T15:53:53.421Z,0.52
2023-02-26T15:56:29.185Z,1.00
2023-02-26T15:59:03.147Z,1.20
2023-02-26T16:01:36.769Z,1.63
2023-02-26T16:04:17.127Z,1.20
2023-02-26T16:06:53.982Z,0.70
2023-02-26T16:09:31.014Z,0.90
2023-02-26T16:12:18.705Z,0.80
2023-02-26T16:15:00.546Z,0.90
2023-02-26T16:17:38.836Z,0.70
2023-02-26T16:20:17.744Z,1.00
2023-02-26T16:22:55.027Z,1.02
2023-02-26T16:25:35.207Z,1.00
2023-02-26T16:28:15.800Z,1.00
2023-02-26T16:30:54.030Z,1.60
2023-02-26T16:33:27.807Z,1.85
2023-02-26T16:36:24.521Z,1.20
2023-02-26T16:39:07.608Z,1.52
2023-02-26T16:41:41.373Z,1.08
2023-02-26T16:44:39.947Z,1.15
2023-02-26T16:47:12.508Z,1.50
2023-02-26T16:49:45.080Z,3.40
2023-02-26T16:52:22.314Z,1.73
2023-02-26T16:54:59.016Z,1.27
2023-02-26T16:57:42.215Z,1.50
2023-02-26T17:00:19.968Z,1.85
2023-02-26T17:02:52.081Z,3.22
2023-02-26T17:05:27.255Z,1.88
2023-02-26T17:08:08.718Z,2.05
2023-02-26T17:10:50.181Z,1.80
2023-02-26T17:13:31.547Z,1.48
2023-02-26T17:16:07.794Z,1.10
2023-02-26T17:18:40.250Z,3.00
2023-02-26T17:21:12.141Z,2.75
2023-02-26T17:23:44.637Z,1.25
2023-02-26T17:26:16.608Z,2.03
2023-02-26T17:28:51.680Z,1.48
2023-02-26T17:31:23.602Z,1.35
2023-02-26T17:33:55.690Z,1.90
2023-02-26T17:36:28.086Z,1.30
2023-02-26T17:39:00.084Z,1.40
2023-02-26T17:41:32.350Z,1.70
2023-02-26T17:44:04.414Z,1.10
2023-02-26T17:46:36.476Z,1.30
2023-02-26T17:49:12.204Z,1.88
2023-02-26T17:51:44.222Z,1.55
2023-02-26T17:54:16.137Z,2.00
2023-02-26T17:56:49.722Z,1.67
2023-02-26T17:59:21.919Z,2.20
2023-02-26T18:01:54.289Z,1.80
2023-02-26T18:04:27.016Z,1.30
2023-02-26T18:06:59.450Z,1.98
2023-02-26T18:09:31.450Z,1.63
2023-02-26T18:12:06.756Z,1.52
2023-02-26T18:14:38.800Z,2.55
2023-02-26T18:17:17.217Z,1.95
2023-02-26T18:19:49.573Z,2.53
2023-02-26T18:22:25.522Z,1.50
2023-02-26T18:25:00.270Z,1.67
2023-02-26T18:27:32.915Z,2.05
2023-02-26T18:30:05.670Z,3.38
2023-02-26T18:32:37.704Z,1.80
2023-02-26T18:35:09.897Z,2.10
2023-02-26T18:37:49.068Z,1.80
2023-02-26T18:40:25.781Z,2.63
2023-02-26T18:42:57.747Z,5.43
2023-02-26T18:45:31.969Z,1.67
2023-02-26T18:48:20.244Z,1.50
2023-02-26T18:51:05.728Z,1.70
2023-02-26T18:53:40.532Z,3.25
2023-02-26T18:56:12.915Z,2.33
2023-02-26T18:58:45.012Z,2.42
2023-02-26T19:01:17.187Z,3.13
2023-02-26T19:03:49.461Z,3.80
2023-02-26T19:06:21.651Z,3.10
2023-02-26T19:08:53.705Z,2.08
2023-02-26T19:11:29.061Z,1.88
2023-02-26T19:14:05.099Z,123.78
2023-02-26T19:16:41.564Z,2.55
2023-02-26T19:19:13.583Z,2.20
2023-02-26T19:21:45.608Z,2.78
2023-02-26T19:24:20.131Z,3.47
2023-02-26T19:26:58.006Z,3.45
2023-02-26T19:29:30.228Z,2.15
2023-02-26T19:32:04.760Z,3.50
2023-02-26T19:34:40.036Z,2.45
2023-02-26T19:37:14.497Z,2.08
2023-02-26T19:39:46.888Z,1.77
2023-02-26T19:42:21.989Z,1.95
2023-02-26T19:44:58.347Z,1.63
2023-02-26T19:47:32.952Z,3.53
2023-02-26T19:50:06.199Z,2.75
2023-02-26T19:52:44.418Z,3.22
2023-02-26T19:55:16.549Z,2.42
2023-02-26T19:57:49.381Z,2.28
2023-02-26T20:00:24.547Z,2.05
2023-02-26T20:03:00.033Z,2.60
2023-02-26T20:05:34.824Z,2.40
2023-02-26T20:08:06.963Z,3.30
2023-02-26T20:10:39.223Z,2.60
2023-02-26T20:13:14.140Z,2.15
2023-02-26T20:15:46.181Z,2.22
2023-02-26T20:18:18.495Z,2.45
2023-02-26T20:20:53.750Z,3.15
2023-02-26T20:23:26.742Z,2.80
2023-02-26T20:26:02.468Z,1.50
2023-02-26T20:28:35.670Z,1.20
2023-02-26T20:31:10.539Z,2.10
2023-02-26T20:33:49.029Z,2.78
2023-02-26T20:36:21.197Z,2.53
2023-02-26T20:38:53.306Z,1.50
2023-02-26T20:41:27.607Z,1.13
2023-02-26T20:44:01.347Z,1.00
2023-02-26T20:46:39.107Z,2.25
2023-02-26T20:49:14.165Z,1.25
2023-02-26T20:51:47.381Z,1.42
2023-02-26T20:54:30.311Z,1.80
2023-02-26T20:57:04.369Z,1.60
2023-02-26T20:59:45.431Z,1.50
2023-02-26T21:02:20.869Z,1.23
2023-02-26T21:04:55.732Z,1.30
2023-02-26T21:07:29.658Z,1.30
2023-02-26T21:10:02.230Z,1.30
2023-02-26T21:12:34.353Z,0.90
2023-02-26T21:15:10.349Z,0.85
2023-02-26T21:17:43.702Z,0.93
2023-02-26T21:20:20.501Z,0.98
2023-02-26T21:22:54.416Z,0.80
2023-02-26T21:25:27.446Z,1.20
2023-02-26T21:27:59.977Z,1.00
2023-02-26T21:30:32.047Z,0.80
2023-02-26T21:33:08.587Z,0.90
2023-02-26T21:35:41.219Z,1.10
2023-02-26T21:38:13.255Z,1.70
2023-02-26T21:40:46.582Z,1.40
2023-02-26T21:43:18.561Z,1.05
2023-02-26T21:45:50.522Z,0.75
2023-02-26T21:48:22.589Z,1.50
2023-02-26T21:50:56.617Z,0.90
2023-02-26T21:53:28.860Z,0.90
2023-02-26T21:56:00.779Z,1.27
2023-02-26T21:58:33.095Z,1.33
2023-02-26T22:01:05.706Z,0.90
2023-02-26T22:03:38.613Z,1.05
2023-02-26T22:06:10.614Z,0.93
2023-02-26T22:08:42.544Z,1.00
2023-02-26T22:11:14.912Z,1.02
2023-02-26T22:13:48.982Z,4.10
2023-02-26T22:16:20.996Z,1.27
2023-02-26T22:18:53.161Z,1.00
2023-02-26T22:21:25.558Z,1.27
2023-02-26T22:23:57.742Z,0.77
2023-02-26T22:26:30.405Z,1.92
2023-02-26T22:29:03.832Z,1.00
2023-02-26T22:31:35.983Z,0.85
2023-02-26T22:34:07.876Z,1.00
2023-02-26T22:36:40.035Z,1.00
2023-02-26T22:39:13.323Z,1.20
2023-02-26T22:41:45.468Z,1.25
2023-02-26T22:44:17.417Z,0.80
2023-02-26T22:46:50.082Z,1.10
2023-02-26T22:49:22.708Z,1.10
2023-02-26T22:51:54.605Z,1.08
2023-02-26T22:54:26.716Z,1.20
2023-02-26T22:56:58.586Z,1.33
2023-02-26T22:59:30.527Z,3.20
2023-02-26T23:02:02.569Z,1.00
2023-02-26T23:04:34.634Z,1.00
2023-02-26T23:07:06.519Z,1.10
2023-02-26T23:09:38.609Z,1.20
2023-02-26T23:12:11.095Z,0.93
2023-02-26T23:14:43.170Z,0.82
2023-02-26T23:17:15.358Z,1.10
2023-02-26T23:19:47.308Z,0.95
2023-02-26T23:22:21.724Z,0.90
2023-02-26T23:24:54.474Z,0.77
2023-02-26T23:27:26.426Z,0.88
2023-02-26T23:29:58.357Z,0.90
2023-02-26T23:32:30.253Z,1.40
2023-02-26T23:35:02.393Z,0.73
2023-02-26T23:37:34.374Z,0.70
2023-02-26T23:40:07.714Z,0.88
2023-02-26T23:42:39.609Z,0.88
2023-02-26T23:45:12.114Z,0.80
2023-02-26T23:47:44.181Z,0.70
2023-02-26T23:50:16.279Z,0.88
2023-02-26T23:52:48.164Z,0.70
2023-02-26T23:55:20.081Z,0.65
2023-02-26T23:57:52.064Z,0.70
